Time;durP1;ratioP1;P1;durP2;ratioP2;P2;SDS_P1;SDS_P2;PMS_P1;PMS_P2;Temp;Humidity;BMP_temperature;BMP_pressure;BME280_temperature;BME280_humidity;BME280_pressure;Samples;Min_cycle;Max_cycle;Signal;HPM_P1;HPM_P2
2021/05/25 00:00:30;;;;;;;;;;;;;;;20.35;46.11;101289.22;1739411;82;20205;-77
2021/05/25 00:02:56;;;;;;;;;;;;;;;20.33;46.11;101291.31;1717460;82;20232;-77
2021/05/25 00:05:27;;;;;;;;;;;;;;;20.33;46.13;101291.31;1724898;82;20848;-76
2021/05/25 00:07:55;;;;;;;;;;;;;;;20.31;46.11;101289.33;1743752;81;20621;-76
2021/05/25 00:10:22;;;;;;;;;;;;;;;20.27;46.16;101289.73;1743873;81;20571;-77
2021/05/25 00:12:48;;;;;;;;;;;;;;;20.27;46.09;101284.81;1743639;82;20575;-77
2021/05/25 00:15:17;;;;;;;;;;;;;;;20.30;45.98;101283.55;1743918;81;20189;-77
2021/05/25 00:17:43;;;;;;;;;;;;;;;20.30;45.93;101282.19;1741673;81;20182;-77
2021/05/25 00:20:11;;;;;;;;;;;;;;;20.31;45.88;101279.81;1734310;81;20559;-76
2021/05/25 00:22:38;;;;;;;;;;;;;;;20.33;45.81;101282.62;1731872;82;20220;-76
2021/05/25 00:25:06;;;;;;;;;;;;;;;20.31;45.82;101273.01;1730940;81;20250;-76
2021/05/25 00:27:32;;;;;;;;;;;;;;;20.33;45.76;101276.35;1713771;82;20218;-76
2021/05/25 00:29:58;;;;;;;;;;;;;;;20.31;45.74;101274.37;1720500;82;20256;-77
2021/05/25 00:32:24;;;;;;;;;;;;;;;20.31;45.68;101281.17;1722817;82;20551;-77
2021/05/25 00:34:52;;;;;;;;;;;;;;;20.27;45.69;101272.04;1734158;82;20246;-76
2021/05/25 00:37:19;;;;;;;;;;;;;;;20.28;45.72;101270.16;1714047;82;20216;-77
2021/05/25 00:39:47;;;;;;;;;;;;;;;20.27;45.73;101265.77;1710611;82;20221;-76
2021/05/25 00:42:13;;;;;;;;;;;;;;;20.25;45.78;101272.75;1714198;82;20202;-77
2021/05/25 00:44:39;;;;;;;;;;;;;;;20.23;45.83;101273.48;1714316;82;20220;-76
2021/05/25 00:47:05;;;;;;;;;;;;;;;20.20;45.88;101273.87;1716894;82;20251;-77
2021/05/25 00:49:31;;;;;;;;;;;;;;;20.22;45.89;101277.78;1715033;82;20244;-77
2021/05/25 00:51:58;;;;;;;;;;;;;;;20.22;45.89;101275.89;1719489;82;20170;-77
2021/05/25 00:54:23;;;;;;;;;;;;;;;20.22;45.95;101277.25;1724310;82;20238;-76
2021/05/25 00:56:50;;;;;;;;;;;;;;;20.27;45.86;101276.12;1707912;84;20164;-76
2021/05/25 00:59:16;;;;;;;;;;;;;;;20.38;45.68;101272.50;1708075;83;20525;-76
2021/05/25 01:01:42;;;;;;;;;;;;;;;20.62;45.11;101272.51;1718213;82;20174;-76
2021/05/25 01:04:08;;;;;;;;;;;;;;;20.62;45.05;101267.93;1739926;82;20241;-76
2021/05/25 01:06:34;;;;;;;;;;;;;;;20.25;45.78;101278.71;1723550;82;20221;-76
2021/05/25 01:09:01;;;;;;;;;;;;;;;20.16;45.92;101286.20;1716827;82;20706;-76
2021/05/25 01:11:28;;;;;;;;;;;;;;;20.11;46.01;101286.48;1737489;82;20269;-76
2021/05/25 01:13:57;;;;;;;;;;;;;;;20.52;45.05;101279.70;1729907;81;20230;-76
2021/05/25 01:16:26;;;;;;;;;;;;;;;20.42;45.10;101274.61;1736952;81;20279;-76
2021/05/25 01:18:53;;;;;;;;;;;;;;;20.15;45.66;101279.61;1737474;81;20612;-76
2021/05/25 01:21:19;;;;;;;;;;;;;;;20.38;45.14;101280.66;1738205;81;20625;-76
2021/05/25 01:23:47;;;;;;;;;;;;;;;20.06;45.66;101278.93;1738420;82;20203;-76
2021/05/25 01:26:15;;;;;;;;;;;;;;;20.00;45.81;101290.63;1738411;82;20186;-76
2021/05/25 01:28:42;;;;;;;;;;;;;;;19.97;45.96;101302.72;1718174;82;20574;-76
2021/05/25 01:31:08;;;;;;;;;;;;;;;20.18;45.59;101305.89;1739043;82;20167;-76
2021/05/25 01:33:37;;;;;;;;;;;;;;;20.44;44.93;101301.64;1739347;81;20147;-76
2021/05/25 01:36:05;;;;;;;;;;;;;;;20.13;45.58;101309.73;1739126;81;20266;-76
2021/05/25 01:38:31;;;;;;;;;;;;;;;20.10;45.79;101312.85;1738955;82;20218;-76
2021/05/25 01:40:57;;;;;;;;;;;;;;;20.03;45.98;101306.55;1739159;81;20181;-76
2021/05/25 01:43:24;;;;;;;;;;;;;;;20.00;45.97;101306.94;1738945;82;20574;-76
2021/05/25 01:45:50;;;;;;;;;;;;;;;19.92;46.18;101307.92;1739033;82;20170;-76
2021/05/25 01:48:17;;;;;;;;;;;;;;;19.92;46.16;101307.09;1739047;81;20301;-76
2021/05/25 01:50:44;;;;;;;;;;;;;;;19.90;46.11;101307.82;1738704;81;20162;-76
2021/05/25 01:53:14;;;;;;;;;;;;;;;19.90;46.16;101314.62;1739150;81;20161;-76
2021/05/25 01:55:51;;;;;;;;;;;;;;;19.88;46.13;101321.59;1739029;81;20206;-76
2021/05/25 01:58:19;;;;;;;;;;;;;;;19.85;46.22;101322.50;1739036;81;20548;-77
2021/05/25 02:00:48;;;;;;;;;;;;;;;19.81;46.38;101326.68;1739123;81;20226;-77
2021/05/25 02:03:14;;;;;;;;;;;;;;;19.76;46.43;101332.71;1738842;81;20246;-76
2021/05/25 02:05:41;;;;;;;;;;;;;;;19.71;46.55;101334.66;1737181;81;20575;-76
2021/05/25 02:08:08;;;;;;;;;;;;;;;19.69;46.64;101337.23;1716643;82;20202;-76
2021/05/25 02:10:40;;;;;;;;;;;;;;;19.64;46.70;101329.67;1716194;82;20227;-76
2021/05/25 02:13:21;;;;;;;;;;;;;;;19.62;46.85;101340.41;1738835;82;20233;-76
2021/05/25 02:15:48;;;;;;;;;;;;;;;19.57;46.92;101336.89;1721831;82;20513;-76
2021/05/25 02:18:20;;;;;;;;;;;;;;;19.54;47.11;101329.15;1716600;82;20532;-76
2021/05/25 02:20:48;;;;;;;;;;;;;;;19.50;47.20;101316.98;1717220;81;20202;-76
2021/05/25 02:23:14;;;;;;;;;;;;;;;19.49;47.19;101315.31;1715913;82;20241;-76
2021/05/25 02:25:40;;;;;;;;;;;;;;;19.50;47.10;101313.75;1718032;82;20265;-76
2021/05/25 02:28:07;;;;;;;;;;;;;;;19.54;47.05;101317.44;1739280;82;20320;-76
2021/05/25 02:30:33;;;;;;;;;;;;;;;19.57;46.97;101315.14;1731526;81;20246;-76
2021/05/25 02:33:02;;;;;;;;;;;;;;;19.61;46.91;101325.98;1735883;82;20245;-76
2021/05/25 02:35:28;;;;;;;;;;;;;;;19.64;47.06;101323.41;1735848;82;20269;-76
2021/05/25 02:37:54;;;;;;;;;;;;;;;19.65;47.02;101318.28;1735860;82;20198;-76
2021/05/25 02:40:23;;;;;;;;;;;;;;;19.66;46.97;101318.08;1736080;82;20210;-76
2021/05/25 02:42:49;;;;;;;;;;;;;;;19.67;46.92;101318.42;1720682;82;20146;-75
2021/05/25 02:45:15;;;;;;;;;;;;;;;19.68;46.98;101337.77;1723695;82;20184;-75
2021/05/25 02:47:42;;;;;;;;;;;;;;;19.67;46.94;101344.77;1741449;81;20265;-75
2021/05/25 02:50:09;;;;;;;;;;;;;;;19.64;46.97;101345.98;1736095;82;20142;-77
2021/05/25 02:52:37;;;;;;;;;;;;;;;19.64;47.20;101341.06;1729998;82;20238;-78
2021/05/25 02:55:05;;;;;;;;;;;;;;;19.62;47.32;101337.20;1739687;82;20269;-77
2021/05/25 02:57:31;;;;;;;;;;;;;;;19.61;47.28;101345.01;1731464;82;20534;-77
2021/05/25 02:59:57;;;;;;;;;;;;;;;19.63;47.33;101350.27;1716896;82;20271;-77
2021/05/25 03:02:22;;;;;;;;;;;;;;;19.63;47.40;101345.67;1726957;82;20170;-77
2021/05/25 03:04:48;;;;;;;;;;;;;;;19.62;47.54;101347.20;1719659;82;20239;-77
2021/05/25 03:07:14;;;;;;;;;;;;;;;19.64;47.57;101354.66;1738949;82;20225;-77
2021/05/25 03:09:40;;;;;;;;;;;;;;;19.64;47.53;101347.34;1725834;82;20152;-77
2021/05/25 03:12:07;;;;;;;;;;;;;;;19.63;47.57;101349.74;1723746;82;20252;-77
2021/05/25 03:14:33;;;;;;;;;;;;;;;19.63;47.76;101351.10;1724080;82;20539;-77
2021/05/25 03:16:59;;;;;;;;;;;;;;;19.67;47.84;101361.08;1732296;81;20542;-77
2021/05/25 03:19:25;;;;;;;;;;;;;;;19.69;47.90;101363.90;1742290;82;20256;-77
2021/05/25 03:21:52;;;;;;;;;;;;;;;19.72;47.93;101362.16;1745587;81;20445;-76
2021/05/25 03:24:20;;;;;;;;;;;;;;;19.79;47.78;101361.36;1774449;81;20390;-77
2021/05/25 03:26:46;;;;;;;;;;;;;;;19.85;47.48;101360.56;1775030;81;20551;-77
2021/05/25 03:29:12;;;;;;;;;;;;;;;19.90;47.30;101356.77;1774980;80;20163;-76
2021/05/25 03:31:38;;;;;;;;;;;;;;;19.93;47.13;101353.62;1775361;80;20235;-77
2021/05/25 03:34:04;;;;;;;;;;;;;;;19.96;46.94;101362.76;1774725;80;20306;-77
2021/05/25 03:36:30;;;;;;;;;;;;;;;19.97;46.79;101361.19;1773670;80;20270;-76
2021/05/25 03:38:56;;;;;;;;;;;;;;;20.01;46.78;101365.20;1735535;80;20278;-75
2021/05/25 03:41:23;;;;;;;;;;;;;;;20.05;46.66;101367.01;1737178;81;20147;-77
2021/05/25 03:43:49;;;;;;;;;;;;;;;20.07;46.73;101358.12;1737523;81;20158;-76
2021/05/25 03:46:15;;;;;;;;;;;;;;;20.08;46.82;101363.91;1737284;82;20538;-75
2021/05/25 03:48:42;;;;;;;;;;;;;;;20.09;46.92;101367.45;1737203;81;20250;-76
2021/05/25 03:51:08;;;;;;;;;;;;;;;20.10;47.00;101363.17;1736765;81;20222;-75
2021/05/25 03:53:33;;;;;;;;;;;;;;;20.12;47.07;101365.19;1732475;82;20240;-75
2021/05/25 03:56:45;;;;;;;;;;;;;;;20.16;47.10;101362.36;1710732;82;20216;-75
2021/05/25 03:58:51;;;;;;;;;;;;;;;20.62;46.14;101361.84;1726334;82;20625;-75
2021/05/25 04:01:20;;;;;;;;;;;;;;;20.75;45.81;101364.59;1736459;82;20174;-75
2021/05/25 04:03:47;;;;;;;;;;;;;;;20.80;45.44;101362.63;1735830;81;20158;-76
2021/05/25 04:06:13;;;;;;;;;;;;;;;20.43;45.95;101363.89;1767245;81;20351;-76
2021/05/25 04:08:39;;;;;;;;;;;;;;;20.37;46.09;101359.26;1709349;81;20180;-76
2021/05/25 04:11:06;;;;;;;;;;;;;;;20.38;45.77;101362.30;1703212;82;20278;-76
2021/05/25 04:13:33;;;;;;;;;;;;;;;20.40;45.71;101361.59;1717478;82;20182;-76
2021/05/25 04:15:59;;;;;;;;;;;;;;;20.43;45.62;101361.16;1734505;81;20280;-76
2021/05/25 04:18:25;;;;;;;;;;;;;;;20.50;45.54;101364.81;1750459;81;20267;-75
2021/05/25 04:20:51;;;;;;;;;;;;;;;20.53;45.48;101360.34;1762038;81;20262;-76
2021/05/25 04:23:22;;;;;;;;;;;;;;;20.60;45.09;101361.72;1683608;84;20577;-75
2021/05/25 04:25:48;;;;;;;;;;;;;;;20.65;44.81;101364.66;1717520;81;20249;-76
2021/05/25 04:28:14;;;;;;;;;;;;;;;20.70;44.65;101354.84;1745874;81;20252;-75
2021/05/25 04:30:42;;;;;;;;;;;;;;;20.77;44.89;101357.61;1734368;81;20700;-75
2021/05/25 04:33:08;;;;;;;;;;;;;;;20.88;44.83;101358.89;1726590;82;20220;-75
2021/05/25 04:35:35;;;;;;;;;;;;;;;20.94;44.52;101352.65;1716306;82;20247;-76
2021/05/25 04:38:01;;;;;;;;;;;;;;;21.00;44.67;101351.82;1735786;81;20286;-76
2021/05/25 04:40:27;;;;;;;;;;;;;;;21.08;44.51;101348.91;1725935;82;20690;-75
2021/05/25 04:42:53;;;;;;;;;;;;;;;21.15;44.33;101348.39;1716119;82;20220;-76
2021/05/25 04:45:19;;;;;;;;;;;;;;;21.22;44.19;101351.98;1734627;81;20249;-75
2021/05/25 04:47:45;;;;;;;;;;;;;;;21.31;44.07;101353.16;1710492;82;20193;-75
2021/05/25 04:50:13;;;;;;;;;;;;;;;21.37;44.14;101360.00;1714718;82;20185;-76
2021/05/25 04:52:39;;;;;;;;;;;;;;;21.42;44.02;101356.13;1734589;81;20282;-76
2021/05/25 04:55:09;;;;;;;;;;;;;;;21.48;43.95;101359.40;1732312;82;20249;-75
2021/05/25 04:57:35;;;;;;;;;;;;;;;21.53;43.59;101348.70;1734426;82;20162;-77
2021/05/25 05:00:00;;;;;;;;;;;;;;;21.59;43.95;101344.83;1744999;81;20211;-77
2021/05/25 05:02:27;;;;;;;;;;;;;;;21.62;43.97;101347.98;1725121;81;20623;-75
2021/05/25 05:04:53;;;;;;;;;;;;;;;21.67;44.06;101353.64;1728903;81;20261;-75
2021/05/25 05:07:20;;;;;;;;;;;;;;;21.70;44.24;101354.56;1732919;80;20251;-76
2021/05/25 05:09:46;;;;;;;;;;;;;;;21.75;44.17;101352.04;1738538;80;20203;-75
2021/05/25 05:12:12;;;;;;;;;;;;;;;21.79;44.07;101356.02;1735867;80;20689;-76
2021/05/25 05:14:40;;;;;;;;;;;;;;;21.83;43.67;101352.89;1732139;80;20237;-76
2021/05/25 05:17:06;;;;;;;;;;;;;;;21.83;43.75;101358.34;1726504;80;20218;-76
2021/05/25 05:19:32;;;;;;;;;;;;;;;21.84;43.68;101361.38;1728082;80;20185;-76
2021/05/25 05:21:59;;;;;;;;;;;;;;;21.86;43.66;101362.86;1728971;80;20682;-76
2021/05/25 05:24:25;;;;;;;;;;;;;;;21.88;43.94;101359.91;1730451;80;20816;-75
2021/05/25 05:26:51;;;;;;;;;;;;;;;21.90;44.05;101368.73;1730661;81;20250;-75
2021/05/25 05:29:17;;;;;;;;;;;;;;;21.93;44.13;101368.30;1729099;81;20302;-77
2021/05/25 05:31:44;;;;;;;;;;;;;;;21.94;44.29;101366.74;1730895;81;20220;-77
2021/05/25 05:34:10;;;;;;;;;;;;;;;21.97;43.90;101368.19;1730120;81;20170;-77
2021/05/25 05:36:37;;;;;;;;;;;;;;;22.00;43.89;101370.51;1728907;80;20138;-76
2021/05/25 05:39:03;;;;;;;;;;;;;;;22.02;44.06;101367.87;1727824;81;20214;-77
2021/05/25 05:41:29;;;;;;;;;;;;;;;22.07;43.78;101363.66;1725653;81;20734;-77
2021/05/25 05:43:56;;;;;;;;;;;;;;;22.10;43.69;101358.63;1721616;81;20642;-76
2021/05/25 05:46:24;;;;;;;;;;;;;;;22.15;43.76;101362.95;1729805;81;20150;-76
2021/05/25 05:48:51;;;;;;;;;;;;;;;22.21;43.90;101366.22;1736247;81;20186;-76
2021/05/25 05:51:22;;;;;;;;;;;;;;;22.28;43.93;101366.19;1730883;81;20217;-75
2021/05/25 05:53:49;;;;;;;;;;;;;;;22.35;43.97;101366.19;1732161;81;20231;-76
2021/05/25 05:56:17;;;;;;;;;;;;;;;22.43;43.76;101358.58;1732298;81;20653;-76
2021/05/25 05:58:44;;;;;;;;;;;;;;;22.52;43.42;101359.19;1734036;81;20273;-76
2021/05/25 06:01:11;;;;;;;;;;;;;;;22.57;43.33;101359.37;1721738;81;20189;-76
2021/05/25 06:03:37;;;;;;;;;;;;;;;22.69;42.90;101360.92;1702295;81;20205;-76
2021/05/25 06:06:04;;;;;;;;;;;;;;;22.79;42.60;101359.39;1724916;81;20304;-77
2021/05/25 06:08:30;;;;;;;;;;;;;;;22.92;42.48;101352.23;1722191;81;20178;-77
2021/05/25 06:10:59;;;;;;;;;;;;;;;23.07;41.86;101348.67;1705125;81;20507;-77
2021/05/25 06:13:25;;;;;;;;;;;;;;;23.20;41.70;101354.05;1725670;81;20179;-77
2021/05/25 06:15:58;;;;;;;;;;;;;;;23.33;41.96;101342.20;1728009;81;20207;-78
2021/05/25 06:18:21;;;;;;;;;;;;;;;23.50;41.69;101345.25;1724572;81;20667;-77
2021/05/25 06:20:47;;;;;;;;;;;;;;;23.65;40.74;101340.84;1717865;81;20195;-78
2021/05/25 06:23:13;;;;;;;;;;;;;;;23.79;40.61;101332.28;1724504;81;20196;-78
2021/05/25 06:25:40;;;;;;;;;;;;;;;23.94;40.20;101332.49;1728359;81;20194;-77
2021/05/25 06:28:06;;;;;;;;;;;;;;;24.09;39.68;101324.75;1709349;82;20174;-77
2021/05/25 06:30:35;;;;;;;;;;;;;;;24.24;40.07;101326.58;1735517;81;20587;-78
2021/05/25 06:33:01;;;;;;;;;;;;;;;24.43;39.92;101322.50;1724448;81;20139;-78
2021/05/25 06:35:27;;;;;;;;;;;;;;;24.60;39.42;101326.30;1733109;81;20190;-77
2021/05/25 06:37:53;;;;;;;;;;;;;;;24.78;38.92;101323.53;1727602;81;20170;-78
2021/05/25 06:40:21;;;;;;;;;;;;;;;24.97;38.80;101311.15;1728519;80;20224;-79
2021/05/25 06:42:50;;;;;;;;;;;;;;;25.16;38.46;101316.90;1726515;81;20185;-77
2021/05/25 06:45:16;;;;;;;;;;;;;;;25.35;38.16;101307.25;1732384;81;20581;-77
2021/05/25 06:47:42;;;;;;;;;;;;;;;25.55;38.26;101307.75;1733723;81;20644;-77
2021/05/25 06:50:09;;;;;;;;;;;;;;;25.71;38.29;101309.80;1730991;81;20201;-78
2021/05/25 06:52:35;;;;;;;;;;;;;;;25.89;37.99;101306.66;1726812;80;20233;-79
2021/05/25 06:55:03;;;;;;;;;;;;;;;26.07;37.90;101305.14;1728400;80;20842;-77
2021/05/25 06:57:30;;;;;;;;;;;;;;;26.27;37.61;101301.48;1735159;79;20169;-77
2021/05/25 06:59:56;;;;;;;;;;;;;;;26.44;37.03;101297.48;1726930;80;20607;-77
2021/05/25 07:02:23;;;;;;;;;;;;;;;26.58;36.59;101299.95;1726577;81;20166;-78
2021/05/25 07:04:50;;;;;;;;;;;;;;;26.68;36.48;101300.16;1727678;80;20257;-77
2021/05/25 07:07:16;;;;;;;;;;;;;;;26.78;36.31;101299.80;1723722;80;20178;-79
2021/05/25 07:09:43;;;;;;;;;;;;;;;26.90;35.94;101299.77;1728593;80;20158;-77
2021/05/25 07:12:10;;;;;;;;;;;;;;;26.97;35.88;101306.47;1726724;81;20222;-77
2021/05/25 07:14:37;;;;;;;;;;;;;;;27.01;35.86;101302.16;1728130;80;20273;-75
2021/05/25 07:17:05;;;;;;;;;;;;;;;27.03;35.54;101297.26;1725571;80;20642;-77
2021/05/25 07:19:32;;;;;;;;;;;;;;;27.08;35.60;101300.64;1732717;80;20583;-76
2021/05/25 07:21:58;;;;;;;;;;;;;;;27.15;35.45;101295.28;1727725;80;20226;-76
2021/05/25 07:24:25;;;;;;;;;;;;;;;27.21;35.29;101295.69;1726455;80;20704;-76
2021/05/25 07:26:51;;;;;;;;;;;;;;;27.20;35.40;101297.29;1727937;80;20177;-76
2021/05/25 07:29:17;;;;;;;;;;;;;;;27.21;35.03;101292.11;1726551;81;20225;-77
2021/05/25 07:31:44;;;;;;;;;;;;;;;27.20;35.32;101291.25;1728159;80;20245;-76
2021/05/25 07:34:10;;;;;;;;;;;;;;;27.21;35.25;101281.11;1730996;80;20217;-77
2021/05/25 07:36:36;;;;;;;;;;;;;;;27.20;34.06;101278.88;1729730;80;20215;-77
2021/05/25 07:39:03;;;;;;;;;;;;;;;27.11;34.01;101287.23;1728965;80;20879;-77
2021/05/25 07:41:30;;;;;;;;;;;;;;;27.02;34.14;101285.94;1705315;81;20198;-77
2021/05/25 07:43:57;;;;;;;;;;;;;;;26.89;34.43;101291.23;1729796;80;20215;-76
2021/05/25 07:46:25;;;;;;;;;;;;;;;26.86;34.99;101285.38;1729408;80;20232;-77
2021/05/25 07:48:53;;;;;;;;;;;;;;;26.85;35.15;101282.34;1728014;80;20228;-77
2021/05/25 07:51:19;;;;;;;;;;;;;;;26.89;35.28;101278.00;1727753;80;20218;-77
2021/05/25 07:53:45;;;;;;;;;;;;;;;26.93;34.76;101277.26;1730355;80;20260;-77
2021/05/25 07:56:11;;;;;;;;;;;;;;;26.97;35.02;101281.73;1730574;80;20165;-77
2021/05/25 07:58:37;;;;;;;;;;;;;;;27.09;34.76;101280.33;1736290;80;20236;-78
2021/05/25 08:01:17;;;;;;;;;;;;;;;27.18;34.96;101273.34;1727940;81;20189;-79
2021/05/25 08:03:44;;;;;;;;;;;;;;;27.27;34.74;101272.67;1719215;80;20641;-78
2021/05/25 08:06:22;;;;;;;;;;;;;;;27.35;34.40;101271.44;1727024;80;20214;-77
2021/05/25 08:08:48;;;;;;;;;;;;;;;27.36;34.05;101275.02;1705300;80;20217;-76
2021/05/25 08:11:20;;;;;;;;;;;;;;;27.31;33.61;101265.59;1729082;80;20189;-78
2021/05/25 08:13:46;;;;;;;;;;;;;;;27.24;33.60;101271.79;1728172;80;20193;-77
2021/05/25 08:16:15;;;;;;;;;;;;;;;27.21;33.80;101276.98;1727953;80;20296;-77
2021/05/25 08:18:50;;;;;;;;;;;;;;;27.20;33.80;101275.28;1726195;80;20209;-77
2021/05/25 08:21:13;;;;;;;;;;;;;;;27.18;34.01;101271.97;1728165;81;20769;-77
2021/05/25 08:23:42;;;;;;;;;;;;;;;27.15;34.28;101269.16;1723802;80;20285;-75
2021/05/25 08:26:15;;;;;;;;;;;;;;;27.14;34.12;101271.63;1723293;80;20180;-76
2021/05/25 08:28:41;;;;;;;;;;;;;;;27.12;34.18;101275.17;1723735;80;20241;-76
2021/05/25 08:31:08;;;;;;;;;;;;;;;27.04;34.46;101270.05;1724291;80;20189;-75
2021/05/25 08:33:38;;;;;;;;;;;;;;;27.03;34.81;101279.38;1722631;80;20247;-77
2021/05/25 08:36:04;;;;;;;;;;;;;;;26.99;34.47;101277.66;1724391;80;20252;-76
2021/05/25 08:38:31;;;;;;;;;;;;;;;26.92;34.64;101270.09;1724014;80;20632;-77
2021/05/25 08:40:57;;;;;;;;;;;;;;;26.90;34.97;101264.57;1728001;80;20214;-77
2021/05/25 08:43:23;;;;;;;;;;;;;;;26.91;35.11;101259.36;1723327;80;20306;-77
2021/05/25 08:45:49;;;;;;;;;;;;;;;26.90;34.91;101264.03;1723103;80;20235;-77
2021/05/25 08:48:15;;;;;;;;;;;;;;;26.91;34.99;101278.60;1722350;80;20779;-77
2021/05/25 08:50:43;;;;;;;;;;;;;;;26.94;35.06;101269.88;1726424;80;20247;-77
2021/05/25 08:53:09;;;;;;;;;;;;;;;26.99;35.01;101276.29;1726906;80;20204;-77
2021/05/25 08:55:35;;;;;;;;;;;;;;;27.00;34.49;101270.24;1727973;80;20229;-77
2021/05/25 08:58:05;;;;;;;;;;;;;;;26.99;34.07;101272.70;1724089;80;20209;-77
2021/05/25 09:00:36;;;;;;;;;;;;;;;26.92;34.12;101270.64;1697002;81;20257;-77
2021/05/25 09:03:05;;;;;;;;;;;;;;;26.86;34.18;101275.77;1677883;80;20241;-76
2021/05/25 09:05:34;;;;;;;;;;;;;;;26.79;34.03;101279.47;1723694;80;20271;-76
2021/05/25 09:08:00;;;;;;;;;;;;;;;26.71;33.93;101271.65;1726141;80;20598;-76
2021/05/25 09:10:36;;;;;;;;;;;;;;;26.64;33.98;101272.33;1721117;80;20226;-77
2021/05/25 09:13:01;;;;;;;;;;;;;;;26.59;34.36;101276.34;1725810;80;20269;-78
2021/05/25 09:15:44;;;;;;;;;;;;;;;26.55;34.45;101269.67;1720708;81;20268;-79
2021/05/25 09:18:18;;;;;;;;;;;;;;;26.55;34.45;101272.42;1723542;80;20244;-78
2021/05/25 09:21:00;;;;;;;;;;;;;;;26.54;34.47;101269.38;1729152;80;20245;-78
2021/05/25 09:23:38;;;;;;;;;;;;;;;26.52;34.67;101264.11;1717086;81;20188;-77
2021/05/25 09:26:09;;;;;;;;;;;;;;;26.54;34.43;101268.01;1733930;80;20264;-77
2021/05/25 09:28:56;;;;;;;;;;;;;;;26.56;35.19;101272.70;1745094;80;20289;-77
2021/05/25 09:31:39;;;;;;;;;;;;;;;26.55;34.72;101265.55;1741134;80;20302;-77
2021/05/25 09:34:23;;;;;;;;;;;;;;;26.56;34.96;101274.91;1740902;79;20264;-77
2021/05/25 09:37:06;;;;;;;;;;;;;;;26.59;34.59;101271.39;1702970;80;20235;-78
2021/05/25 09:39:36;;;;;;;;;;;;;;;26.58;34.66;101271.94;1716725;80;20238;-78
2021/05/25 09:42:07;;;;;;;;;;;;;;;26.57;34.50;101257.88;1692323;81;20155;-77
2021/05/25 09:44:35;;;;;;;;;;;;;;;26.58;34.55;101260.95;1709077;81;20251;-77
2021/05/25 09:47:02;;;;;;;;;;;;;;;26.56;34.60;101254.30;1697453;81;20226;-78
2021/05/25 09:49:29;;;;;;;;;;;;;;;26.53;34.57;101260.85;1705071;80;20613;-78
2021/05/25 09:52:10;;;;;;;;;;;;;;;26.50;34.90;101256.66;1726855;80;20285;-77
2021/05/25 09:54:36;;;;;;;;;;;;;;;26.49;34.96;101256.92;1728912;80;20218;-77
2021/05/25 09:57:07;;;;;;;;;;;;;;;26.47;34.70;101256.31;1726942;80;20741;-79
2021/05/25 09:59:38;;;;;;;;;;;;;;;26.44;34.88;101247.20;1732179;80;20256;-78
2021/05/25 10:02:19;;;;;;;;;;;;;;;26.36;34.16;101237.94;1729985;80;20718;-78
2021/05/25 10:05:03;;;;;;;;;;;;;;;26.33;33.77;101232.92;1727007;80;20237;-78
2021/05/25 10:07:29;;;;;;;;;;;;;;;26.24;34.01;101234.67;1724157;80;20284;-78
2021/05/25 10:09:58;;;;;;;;;;;;;;;26.18;34.43;101227.97;1699775;81;20250;-80
2021/05/25 10:12:26;;;;;;;;;;;;;;;26.13;34.50;101223.20;1730256;80;20332;-79
2021/05/25 10:14:55;;;;;;;;;;;;;;;26.11;34.20;101228.08;1726936;80;20197;-79
2021/05/25 10:20:06;;;;;;;;;;;;;;;26.05;35.04;101226.32;1688834;82;20751;-78
2021/05/25 10:22:36;;;;;;;;;;;;;;;26.04;34.52;101226.03;1685652;82;20299;-79
2021/05/25 10:25:05;;;;;;;;;;;;;;;26.01;34.16;101221.02;1689623;82;20201;-77
2021/05/25 10:27:33;;;;;;;;;;;;;;;25.99;34.27;101217.69;1690038;80;20303;-80
2021/05/25 10:29:59;;;;;;;;;;;;;;;25.92;34.48;101221.09;1703063;81;20181;-78
2021/05/25 10:32:25;;;;;;;;;;;;;;;25.94;33.72;101225.82;1727719;79;20227;-79
2021/05/25 10:34:53;;;;;;;;;;;;;;;25.92;33.58;101219.72;1724395;80;20752;-80
2021/05/25 10:37:21;;;;;;;;;;;;;;;25.92;33.75;101208.73;1727434;80;20920;-80
2021/05/25 10:39:57;;;;;;;;;;;;;;;25.91;33.31;101204.33;1729458;80;20249;-81
2021/05/25 10:42:26;;;;;;;;;;;;;;;25.92;33.37;101201.88;1726837;81;20552;-82
2021/05/25 10:45:18;;;;;;;;;;;;;;;25.91;33.28;101200.22;1725081;80;20233;-80
2021/05/25 10:48:03;;;;;;;;;;;;;;;25.88;33.13;101194.66;1727040;80;20183;-80
2021/05/25 10:50:34;;;;;;;;;;;;;;;25.87;32.81;101185.30;1699331;80;20225;-81
2021/05/25 10:53:07;;;;;;;;;;;;;;;25.86;32.86;101186.39;1727543;80;20220;-81
2021/05/25 10:55:40;;;;;;;;;;;;;;;25.87;32.93;101183.39;1799637;78;20154;-81
2021/05/25 10:58:35;;;;;;;;;;;;;;;25.88;32.56;101182.31;1765660;78;20592;-79
2021/05/25 11:01:06;;;;;;;;;;;;;;;25.89;32.38;101179.02;1793123;78;20205;-80
2021/05/25 11:03:34;;;;;;;;;;;;;;;25.86;32.51;101180.89;1796208;78;20237;-80
2021/05/25 11:06:03;;;;;;;;;;;;;;;25.88;32.41;101174.61;1795593;78;20740;-81
2021/05/25 11:08:31;;;;;;;;;;;;;;;25.88;32.07;101178.73;1792239;78;20171;-79
2021/05/25 11:11:10;;;;;;;;;;;;;;;25.87;31.76;101181.19;1791866;78;20284;-78
2021/05/25 11:13:42;;;;;;;;;;;;;;;25.85;31.58;101175.95;1795110;78;20212;-80
2021/05/25 11:16:30;;;;;;;;;;;;;;;25.83;31.51;101174.52;1797574;78;20217;-80
2021/05/25 11:19:18;;;;;;;;;;;;;;;25.79;31.65;101176.90;1796517;78;20616;-77
2021/05/25 11:27:13;;;;;;;;;;;;;;;25.67;31.36;101159.06;1796410;78;20264;-77
2021/05/25 11:29:52;;;;;;;;;;;;;;;25.66;31.26;101153.30;1792993;78;20503;-78
2021/05/25 11:32:23;;;;;;;;;;;;;;;25.55;31.67;101147.27;1799375;78;20170;-79
2021/05/25 11:34:59;;;;;;;;;;;;;;;25.55;31.93;101152.75;1795513;78;20232;-79
2021/05/25 11:37:26;;;;;;;;;;;;;;;25.56;31.65;101148.39;1799217;78;20350;-79
2021/05/25 11:39:54;;;;;;;;;;;;;;;25.54;31.71;101145.61;1770514;78;20162;-80
2021/05/25 11:42:26;;;;;;;;;;;;;;;25.60;31.71;101139.69;1797177;78;20153;-79
2021/05/25 11:44:54;;;;;;;;;;;;;;;25.61;31.75;101147.66;1794965;78;20201;-79
2021/05/25 11:47:20;;;;;;;;;;;;;;;25.60;31.85;101146.00;1797417;77;20177;-79
2021/05/25 11:49:47;;;;;;;;;;;;;;;25.59;31.81;101142.97;1741505;78;20252;-76
2021/05/25 11:52:22;;;;;;;;;;;;;;;25.59;32.21;101145.72;1796708;78;20227;-77
2021/05/25 11:54:49;;;;;;;;;;;;;;;25.61;32.31;101145.47;1795649;78;20249;-76
2021/05/25 11:57:31;;;;;;;;;;;;;;;25.61;32.29;101142.72;1791537;78;20813;-77
2021/05/25 12:00:10;;;;;;;;;;;;;;;25.60;32.77;101140.52;1797132;78;20176;-77
2021/05/25 12:02:45;;;;;;;;;;;;;;;25.60;32.54;101143.27;1764074;78;20531;-77
2021/05/25 12:05:17;;;;;;;;;;;;;;;25.60;32.41;101143.80;1801434;78;20502;-78
2021/05/25 12:07:54;;;;;;;;;;;;;;;25.57;32.42;101142.36;1770672;78;20180;-78
2021/05/25 12:10:21;;;;;;;;;;;;;;;25.53;32.48;101143.95;1789030;78;20223;-78
2021/05/25 12:12:49;;;;;;;;;;;;;;;25.49;32.68;101137.27;1798851;78;20340;-78
2021/05/25 12:15:20;;;;;;;;;;;;;;;25.48;33.04;101145.17;1794749;78;20184;-78
2021/05/25 12:17:55;;;;;;;;;;;;;;;25.48;33.17;101142.43;1759353;79;20183;-77
2021/05/25 12:20:42;;;;;;;;;;;;;;;25.49;33.10;101135.89;1700542;82;22662;-78
2021/05/25 12:23:14;;;;;;;;;;;;;;;25.48;33.22;101128.20;1711399;81;20362;-79
2021/05/25 12:25:42;;;;;;;;;;;;;;;25.51;33.36;101125.50;1730479;81;20206;-78
2021/05/25 12:28:13;;;;;;;;;;;;;;;25.51;33.22;101129.62;1732305;80;20190;-79
2021/05/25 12:30:54;;;;;;;;;;;;;;;25.49;33.17;101124.38;1729775;80;20267;-80
2021/05/25 12:33:34;;;;;;;;;;;;;;;25.50;33.42;101119.19;1730322;80;20181;-77
2021/05/25 12:36:23;;;;;;;;;;;;;;;25.51;33.67;101110.42;1731649;80;20186;-78
2021/05/25 12:38:59;;;;;;;;;;;;;;;25.49;33.73;101106.55;1733451;80;20219;-79
2021/05/25 12:41:25;;;;;;;;;;;;;;;25.49;33.77;101112.58;1738190;80;20305;-78
2021/05/25 12:44:06;;;;;;;;;;;;;;;25.49;33.52;101109.84;1720602;81;20210;-78
2021/05/25 12:46:38;;;;;;;;;;;;;;;25.49;33.67;101108.47;1723037;81;20232;-77
2021/05/25 12:49:02;;;;;;;;;;;;;;;25.49;33.32;101107.09;1728406;80;20189;-78
2021/05/25 12:51:28;;;;;;;;;;;;;;;25.48;33.39;101087.58;1733854;80;20142;-76